createdAt,value
2023-05-12T00:00:30.268Z,101286.75
2023-05-12T00:02:57.742Z,101286.47
2023-05-12T00:05:25.410Z,101277.34
2023-05-12T00:07:52.804Z,101286.75
2023-05-12T00:10:21.083Z,101281.31
2023-05-12T00:12:49.186Z,101291.94
2023-05-12T00:15:19.625Z,101286.47
2023-05-12T00:17:47.096Z,101281.28
2023-05-12T00:20:14.519Z,101279.19
2023-05-12T00:22:42.565Z,101279.47
2023-05-12T00:25:10.395Z,101282.69
2023-05-12T00:27:37.781Z,101281.81
2023-05-12T00:30:06.907Z,101282.94
2023-05-12T00:32:35.619Z,101284.06
2023-05-12T00:35:03.041Z,101284.59
2023-05-12T00:37:30.539Z,101288.56
2023-05-12T00:39:57.931Z,101288.09
2023-05-12T00:42:25.306Z,101288.69
2023-05-12T00:44:52.703Z,101279.50
2023-05-12T00:47:21.674Z,101296.66
2023-05-12T00:49:50.529Z,101294.22
2023-05-12T00:52:17.952Z,101299.66
2023-05-12T00:54:45.476Z,101294.63
2023-05-12T00:57:13.669Z,101296.09
2023-05-12T00:59:41.145Z,101300.53
2023-05-12T01:02:08.750Z,101292.47
2023-05-12T01:04:37.101Z,101295.59
2023-05-12T01:07:10.937Z,101291.84
2023-05-12T01:09:38.317Z,101291.16
2023-05-12T01:12:06.313Z,101291.75
2023-05-12T01:14:34.168Z,101294.03
2023-05-12T01:17:05.152Z,101295.22
2023-05-12T01:19:41.618Z,101296.50
2023-05-12T01:22:11.024Z,101299.41
2023-05-12T01:24:46.109Z,101301.69
2023-05-12T01:27:16.415Z,101314.78
2023-05-12T01:29:45.799Z,101312.69
2023-05-12T01:32:13.776Z,101310.34
2023-05-12T01:34:42.357Z,101311.97
2023-05-12T01:37:09.858Z,101309.94
2023-05-12T01:39:37.455Z,101318.16
2023-05-12T01:42:05.619Z,101300.50
2023-05-12T01:44:34.600Z,101308.00
2023-05-12T01:47:02.503Z,101311.00
2023-05-12T01:49:29.901Z,101305.72
2023-05-12T01:51:57.383Z,101310.31
2023-05-12T01:54:24.791Z,101319.00
2023-05-12T01:56:52.195Z,101309.94
2023-05-12T01:59:19.697Z,101321.00
2023-05-12T02:01:48.476Z,101320.78
2023-05-12T02:04:16.294Z,101314.63
2023-05-12T02:06:43.816Z,101318.78
2023-05-12T02:09:11.244Z,101325.97
2023-05-12T02:11:38.686Z,101324.09
2023-05-12T02:14:06.630Z,101332.84
2023-05-12T02:16:34.109Z,101325.66
2023-05-12T02:19:02.898Z,101337.03
2023-05-12T02:21:31.309Z,101335.47
2023-05-12T02:23:58.732Z,101343.34
2023-05-12T02:26:26.170Z,101340.00
2023-05-12T02:28:53.568Z,101343.44
2023-05-12T02:31:20.996Z,101336.22
2023-05-12T02:33:48.468Z,101346.84
2023-05-12T02:36:17.197Z,101346.19
2023-05-12T02:38:44.570Z,101345.25
2023-05-12T02:41:11.967Z,101343.41
2023-05-12T02:43:39.757Z,101343.56
2023-05-12T02:46:07.204Z,101347.88
2023-05-12T02:48:34.633Z,101343.63
2023-05-12T02:51:02.073Z,101344.56
2023-05-12T02:53:30.864Z,101338.47
2023-05-12T02:55:58.300Z,101342.84
2023-05-12T02:58:25.872Z,101341.84
2023-05-12T03:01:03.085Z,101349.75
2023-05-12T03:03:37.289Z,101350.66
2023-05-12T03:06:06.083Z,101342.00
2023-05-12T03:08:34.910Z,101347.19
2023-05-12T03:11:02.401Z,101336.78
2023-05-12T03:13:29.830Z,101343.72
2023-05-12T03:16:01.149Z,101341.09
2023-05-12T03:18:28.977Z,101348.94
2023-05-12T03:20:56.539Z,101352.38
2023-05-12T03:23:23.957Z,101349.78
2023-05-12T03:25:52.765Z,101352.34
2023-05-12T03:28:20.178Z,101353.25
2023-05-12T03:30:47.573Z,101348.84
2023-05-12T03:33:15.011Z,101354.09
2023-05-12T03:35:42.511Z,101350.63
2023-05-12T03:38:09.894Z,101350.59
2023-05-12T03:40:37.317Z,101358.38
2023-05-12T03:43:06.054Z,101345.44
2023-05-12T03:45:33.448Z,101354.97
2023-05-12T03:48:01.372Z,101365.34
2023-05-12T03:50:28.821Z,101364.47
2023-05-12T03:52:56.804Z,101362.75
2023-05-12T03:55:24.265Z,101359.28
2023-05-12T03:57:51.748Z,101356.63
2023-05-12T04:00:21.471Z,101367.09
2023-05-12T04:02:49.134Z,101359.19
2023-05-12T04:05:16.847Z,101366.16
2023-05-12T04:07:44.259Z,101360.94
2023-05-12T04:10:11.747Z,101360.06
2023-05-12T04:12:39.285Z,101371.41
2023-05-12T04:15:07.981Z,101368.72
2023-05-12T04:17:36.907Z,101368.75
2023-05-12T04:20:04.734Z,101373.97
2023-05-12T04:22:32.167Z,101371.31
2023-05-12T04:24:59.582Z,101376.56
2023-05-12T04:27:26.986Z,101376.53
2023-05-12T04:29:54.636Z,101373.00
2023-05-12T04:32:22.102Z,101373.13
2023-05-12T04:34:51.647Z,101371.31
2023-05-12T04:37:19.052Z,101372.16
2023-05-12T04:39:46.436Z,101371.28
2023-05-12T04:42:13.968Z,101378.31
2023-05-12T04:44:41.406Z,101389.59
2023-05-12T04:47:08.803Z,101379.97
2023-05-12T04:49:36.205Z,101396.53
2023-05-12T04:52:05.656Z,101388.63
2023-05-12T04:54:33.157Z,101385.25
2023-05-12T04:57:00.573Z,101392.19
2023-05-12T04:59:28.326Z,101398.19
2023-05-12T05:01:56.014Z,101397.38
2023-05-12T05:04:23.867Z,101401.72
2023-05-12T05:06:51.281Z,101400.81
2023-05-12T05:09:20.023Z,101413.81
2023-05-12T05:11:47.850Z,101406.00
2023-05-12T05:14:15.695Z,101400.75
2023-05-12T05:16:43.415Z,101407.72
2023-05-12T05:19:20.080Z,101403.25
2023-05-12T05:21:53.560Z,101412.59
2023-05-12T05:24:22.303Z,101419.56
2023-05-12T05:26:49.884Z,101414.22
2023-05-12T05:29:17.312Z,101417.69
2023-05-12T05:31:44.905Z,101406.53
2023-05-12T05:34:12.477Z,101410.63
2023-05-12T05:36:40.299Z,101403.31
2023-05-12T05:39:10.208Z,101405.94
2023-05-12T05:41:39.086Z,101409.69
2023-05-12T05:44:06.593Z,101420.09
2023-05-12T05:46:34.040Z,101407.22
2023-05-12T05:49:01.543Z,101412.88
2023-05-12T05:51:28.941Z,101417.56
2023-05-12T05:53:56.356Z,101415.94
2023-05-12T05:56:24.137Z,101416.78
2023-05-12T05:58:53.341Z,101405.03
2023-05-12T06:01:20.822Z,101380.88
2023-05-12T06:03:48.285Z,101399.81
2023-05-12T06:06:15.961Z,101393.47
2023-05-12T06:08:43.343Z,101405.78
2023-05-12T06:11:10.768Z,101400.22
2023-05-12T06:13:38.329Z,101405.44
2023-05-12T06:16:07.434Z,101423.81
2023-05-12T06:18:37.852Z,101424.03
2023-05-12T06:21:06.188Z,101435.91
2023-05-12T06:23:33.642Z,101430.63
2023-05-12T06:26:01.065Z,101437.13
2023-05-12T06:28:28.489Z,101440.91
2023-05-12T06:30:55.949Z,101433.84
2023-05-12T06:33:24.725Z,101438.91
2023-05-12T06:35:52.181Z,101434.03
2023-05-12T06:38:19.627Z,101443.94
2023-05-12T06:40:47.023Z,101438.16
2023-05-12T06:43:14.852Z,101438.03
2023-05-12T06:45:42.380Z,101440.75
2023-05-12T06:48:10.282Z,101448.13
2023-05-12T06:50:39.173Z,101440.97
2023-05-12T06:53:08.049Z,101441.69
2023-05-12T06:55:35.558Z,101437.16
2023-05-12T06:58:03.266Z,101437.44
2023-05-12T07:00:30.674Z,101437.34
2023-05-12T07:02:58.388Z,101440.38
2023-05-12T07:05:25.931Z,101435.38
2023-05-12T07:07:54.678Z,101444.47
2023-05-12T07:10:22.098Z,101439.13
2023-05-12T07:12:49.536Z,101435.69
2023-05-12T07:15:16.921Z,101447.19
2023-05-12T07:17:44.381Z,101436.28
2023-05-12T07:20:12.799Z,101439.22
2023-05-12T07:22:40.276Z,101449.13
2023-05-12T07:25:09.757Z,101443.72
2023-05-12T07:27:37.208Z,101441.66
2023-05-12T07:30:05.691Z,101452.72
2023-05-12T07:32:33.300Z,101449.00
2023-05-12T07:35:00.835Z,101449.44
2023-05-12T07:37:28.648Z,101439.88
2023-05-12T07:39:56.145Z,101453.97
2023-05-12T07:42:24.896Z,101440.69
2023-05-12T07:44:52.279Z,101442.56
2023-05-12T07:47:19.648Z,101436.41
2023-05-12T07:49:47.092Z,101444.97
2023-05-12T07:52:14.822Z,101436.63
2023-05-12T07:54:42.235Z,101440.00
2023-05-12T07:57:09.681Z,101451.06
2023-05-12T07:59:38.423Z,101447.44
2023-05-12T08:02:06.471Z,101458.66
2023-05-12T08:04:33.981Z,101440.81
2023-05-12T08:07:01.606Z,101447.41
2023-05-12T08:09:29.138Z,101454.28
2023-05-12T08:11:56.555Z,101451.66
2023-05-12T08:14:25.628Z,101440.97
2023-05-12T08:16:54.429Z,101438.63
2023-05-12T08:19:21.913Z,101438.69
2023-05-12T08:21:49.592Z,101436.88
2023-05-12T08:24:17.126Z,101437.25
2023-05-12T08:26:44.553Z,101437.53
2023-05-12T08:29:12.675Z,101435.06
2023-05-12T08:31:40.427Z,101428.03
2023-05-12T08:34:11.149Z,101443.34
2023-05-12T08:36:39.106Z,101433.53
2023-05-12T08:39:07.768Z,101435.50
2023-05-12T08:41:43.898Z,101446.66
2023-05-12T08:44:12.177Z,101435.22
2023-05-12T08:46:40.036Z,101438.53
2023-05-12T08:49:15.753Z,101437.25
2023-05-12T08:51:46.667Z,101439.97
2023-05-12T08:54:19.609Z,101441.88
2023-05-12T08:59:18.569Z,101439.59
2023-05-12T09:01:47.497Z,101435.81
2023-05-12T09:04:16.457Z,101435.78
2023-05-12T09:06:44.662Z,101445.09
2023-05-12T09:09:15.564Z,101444.16
2023-05-12T09:11:44.071Z,101441.34
2023-05-12T09:14:18.909Z,101437.03
2023-05-12T09:16:49.759Z,101438.09
2023-05-12T09:19:21.928Z,101425.34
2023-05-12T09:21:49.594Z,101433.03
2023-05-12T09:24:17.051Z,101418.22
2023-05-12T09:26:49.301Z,101432.72
2023-05-12T09:29:27.795Z,101430.97
2023-05-12T09:31:59.539Z,101438.91
2023-05-12T09:34:31.381Z,101440.38
2023-05-12T09:37:01.037Z,101437.69
2023-05-12T09:39:29.371Z,101431.22
2023-05-12T09:41:57.005Z,101426.03
2023-05-12T09:44:25.742Z,101420.34
2023-05-12T09:46:53.557Z,101424.72
2023-05-12T09:49:21.603Z,101432.47
2023-05-12T09:51:54.782Z,101424.41
2023-05-12T09:54:26.408Z,101427.78
2023-05-12T09:56:58.195Z,101431.81
2023-05-12T09:59:28.279Z,101437.19
2023-05-12T10:02:00.007Z,101431.75
2023-05-12T10:04:29.680Z,101429.78
2023-05-12T10:06:59.989Z,101425.16
2023-05-12T10:09:33.987Z,101432.00
2023-05-12T10:12:04.357Z,101421.34
2023-05-12T10:14:32.360Z,101403.13
2023-05-12T10:17:00.903Z,101420.75
2023-05-12T10:19:31.001Z,101417.78
2023-05-12T10:21:59.778Z,101410.63
2023-05-12T10:24:28.132Z,101391.09
2023-05-12T10:26:56.657Z,101408.84
2023-05-12T10:29:29.647Z,101411.19
2023-05-12T10:31:57.650Z,101393.09
2023-05-12T10:34:31.028Z,101412.06
2023-05-12T10:36:59.853Z,101407.16
2023-05-12T10:39:30.808Z,101412.13
2023-05-12T10:42:07.091Z,101402.78
2023-05-12T10:44:35.221Z,101402.56
2023-05-12T10:47:03.146Z,101400.53
2023-05-12T10:49:34.779Z,101413.16
2023-05-12T10:52:03.585Z,101411.53
2023-05-12T10:54:33.938Z,101407.25
2023-05-12T10:57:02.144Z,101417.38
2023-05-12T10:59:30.057Z,101389.09
2023-05-12T11:02:01.290Z,101398.72
2023-05-12T11:04:42.247Z,101400.72
2023-05-12T11:07:14.091Z,101392.44
2023-05-12T11:09:56.861Z,101390.84
2023-05-12T11:12:27.379Z,101399.66
2023-05-12T11:14:55.065Z,101401.34
2023-05-12T11:17:22.621Z,101394.38
2023-05-12T11:19:51.175Z,101386.78
2023-05-12T11:22:21.618Z,101396.34
2023-05-12T11:24:50.783Z,101375.50
2023-05-12T11:27:22.592Z,101377.56
2023-05-12T11:29:57.927Z,101395.41
2023-05-12T11:32:25.402Z,101400.19
2023-05-12T11:34:52.868Z,101386.63
2023-05-12T11:37:21.923Z,101393.06
2023-05-12T11:39:49.489Z,101383.59
2023-05-12T11:42:19.789Z,101389.31
2023-05-12T11:44:48.781Z,101390.59
2023-05-12T11:47:17.580Z,101396.75
2023-05-12T11:49:49.386Z,101401.88
2023-05-12T11:52:17.858Z,101408.84
2023-05-12T11:54:51.014Z,101403.97
2023-05-12T11:57:26.931Z,101398.66
2023-05-12T11:59:59.080Z,101387.22
2023-05-12T12:02:27.369Z,101403.88
2023-05-12T12:04:55.304Z,101396.78
2023-05-12T12:07:30.150Z,101404.56
2023-05-12T12:09:59.458Z,101404.44
2023-05-12T12:12:26.860Z,101415.03
2023-05-12T12:14:56.615Z,101411.91
2023-05-12T12:17:30.846Z,101396.06
2023-05-12T12:19:58.448Z,101397.25
2023-05-12T12:22:25.988Z,101409.09
2023-05-12T12:24:53.651Z,101414.31
2023-05-12T12:27:22.577Z,101408.69
2023-05-12T12:29:50.790Z,101393.09
2023-05-12T12:32:18.443Z,101393.22
2023-05-12T12:34:46.353Z,101388.09
2023-05-12T12:37:14.046Z,101391.22
2023-05-12T12:39:41.428Z,101402.34
2023-05-12T12:42:09.110Z,101388.97
2023-05-12T12:44:37.974Z,101392.53
2023-05-12T12:47:06.431Z,101397.09
2023-05-12T12:49:33.932Z,101393.34
2023-05-12T12:52:02.160Z,101384.31
2023-05-12T12:54:29.676Z,101376.78
2023-05-12T12:56:57.175Z,101387.81
2023-05-12T12:59:24.743Z,101381.94
2023-05-12T13:01:53.645Z,101384.88
2023-05-12T13:04:23.005Z,101386.81
2023-05-12T13:06:50.606Z,101402.53
2023-05-12T13:09:20.008Z,101379.75
2023-05-12T13:11:48.820Z,101371.06
2023-05-12T13:14:17.032Z,101372.81
2023-05-12T13:16:44.457Z,101380.41
2023-05-12T13:19:13.695Z,101389.19
2023-05-12T13:21:41.905Z,101383.28
2023-05-12T13:24:09.558Z,101390.16
2023-05-12T13:26:37.112Z,101387.06
2023-05-12T13:29:05.121Z,101387.16
2023-05-12T13:31:32.934Z,101388.00
2023-05-12T13:34:00.470Z,101380.25
2023-05-12T13:36:29.801Z,101375.50
2023-05-12T13:38:57.214Z,101378.81
2023-05-12T13:41:24.849Z,101383.03
2023-05-12T13:43:52.373Z,101374.25
2023-05-12T13:46:19.986Z,101373.22
2023-05-12T13:48:48.012Z,101371.69
2023-05-12T13:51:15.831Z,101375.97
2023-05-12T13:53:44.608Z,101367.22
2023-05-12T13:56:12.063Z,101374.09
2023-05-12T13:58:39.535Z,101365.00
2023-05-12T14:01:08.742Z,101369.63
2023-05-12T14:03:36.967Z,101378.97
2023-05-12T14:06:04.602Z,101364.97
2023-05-12T14:08:32.027Z,101363.47
2023-05-12T14:11:01.162Z,101363.03
2023-05-12T14:13:28.542Z,101364.88
2023-05-12T14:15:56.519Z,101370.06
2023-05-12T14:18:25.112Z,101373.59
2023-05-12T14:20:53.026Z,101380.00
2023-05-12T14:23:20.544Z,101365.69
2023-05-12T14:25:48.002Z,101359.06
2023-05-12T14:28:16.894Z,101363.06
2023-05-12T14:30:45.235Z,101365.06
2023-05-12T14:33:13.094Z,101366.91
2023-05-12T14:35:40.585Z,101371.63
2023-05-12T14:38:08.021Z,101360.50
2023-05-12T14:40:35.464Z,101366.31
2023-05-12T14:43:03.367Z,101370.75
2023-05-12T14:45:32.466Z,101365.94
2023-05-12T14:48:00.116Z,101378.28
2023-05-12T14:50:28.516Z,101365.03
2023-05-12T14:52:56.023Z,101374.41
2023-05-12T14:55:24.494Z,101385.13
2023-05-12T14:57:51.980Z,101373.31
2023-05-12T15:00:21.212Z,101371.69
2023-05-12T15:02:50.114Z,101365.47
2023-05-12T15:05:17.819Z,101365.81
2023-05-12T15:07:45.400Z,101368.03
2023-05-12T15:10:12.986Z,101367.63
2023-05-12T15:12:40.439Z,101369.44
2023-05-12T15:15:11.403Z,101371.06
2023-05-12T15:17:39.251Z,101371.53
2023-05-12T15:20:10.898Z,101391.47
2023-05-12T15:22:38.348Z,101376.94
2023-05-12T15:25:06.725Z,101381.66
2023-05-12T15:27:34.181Z,101379.84
2023-05-12T15:30:01.648Z,101368.78
2023-05-12T15:32:29.122Z,101365.75
2023-05-12T15:34:57.162Z,101368.41
2023-05-12T15:37:26.003Z,101362.81
2023-05-12T15:39:53.470Z,101356.69
2023-05-12T15:42:26.166Z,101371.97
2023-05-12T15:44:59.913Z,101374.22
2023-05-12T15:47:27.653Z,101367.78
2023-05-12T15:49:55.109Z,101368.81
2023-05-12T15:52:22.944Z,101370.66
2023-05-12T15:54:51.771Z,101366.22
2023-05-12T15:57:19.179Z,101360.38
2023-05-12T15:59:47.548Z,101368.34
2023-05-12T16:02:15.171Z,101362.34
2023-05-12T16:04:42.753Z,101352.38
2023-05-12T16:07:10.228Z,101367.38
2023-05-12T16:09:37.658Z,101363.16
2023-05-12T16:12:09.336Z,101366.22
2023-05-12T16:14:36.859Z,101361.91
2023-05-12T16:17:04.354Z,101368.31
2023-05-12T16:19:31.815Z,101366.66
2023-05-12T16:22:00.252Z,101365.28
2023-05-12T16:24:28.573Z,101354.75
2023-05-12T16:26:56.243Z,101372.66
2023-05-12T16:29:25.255Z,101366.38
2023-05-12T16:31:53.622Z,101354.97
2023-05-12T16:34:21.215Z,101367.56
2023-05-12T16:36:48.814Z,101361.28
2023-05-12T16:39:17.926Z,101367.28
2023-05-12T16:41:45.710Z,101363.13
2023-05-12T16:44:13.181Z,101356.06
2023-05-12T16:46:43.293Z,101368.06
2023-05-12T16:49:10.871Z,101363.94
2023-05-12T16:51:38.858Z,101370.00
2023-05-12T16:54:06.335Z,101362.22
2023-05-12T16:56:33.798Z,101370.94
2023-05-12T16:59:01.327Z,101372.13
2023-05-12T17:01:30.242Z,101363.69
2023-05-12T17:03:59.416Z,101370.31
2023-05-12T17:06:27.139Z,101371.78
2023-05-12T17:08:54.545Z,101358.31
2023-05-12T17:11:22.292Z,101366.56
2023-05-12T17:13:49.727Z,101364.53
2023-05-12T17:16:17.216Z,101370.41
2023-05-12T17:21:16.957Z,101381.72
2023-05-12T17:23:44.417Z,101387.69
2023-05-12T17:26:11.832Z,101377.81
2023-05-12T17:28:39.477Z,101381.38
2023-05-12T17:31:07.444Z,101391.16
2023-05-12T17:33:35.102Z,101395.59
2023-05-12T17:36:11.729Z,101385.34
2023-05-12T17:38:42.012Z,101386.53
2023-05-12T17:41:09.877Z,101382.53
2023-05-12T17:43:37.322Z,101382.97
2023-05-12T17:46:05.351Z,101395.91
2023-05-12T17:48:33.388Z,101396.75
2023-05-12T17:51:01.276Z,101398.19
2023-05-12T17:53:28.713Z,101404.78
2023-05-12T17:55:57.506Z,101400.84
2023-05-12T17:58:24.926Z,101406.88
2023-05-12T18:00:52.925Z,101405.84
2023-05-12T18:03:23.706Z,101418.31
2023-05-12T18:05:51.899Z,101417.38
2023-05-12T18:08:19.768Z,101415.75
2023-05-12T18:10:47.647Z,101424.81
2023-05-12T18:13:16.424Z,101423.47
2023-05-12T18:15:44.230Z,101425.63
2023-05-12T18:18:12.290Z,101423.53
2023-05-12T18:20:39.859Z,101426.78
2023-05-12T18:23:07.293Z,101430.34
2023-05-12T18:25:34.849Z,101424.56
2023-05-12T18:28:02.240Z,101422.94
2023-05-12T18:30:31.087Z,101427.50
2023-05-12T18:32:58.572Z,101425.44
2023-05-12T18:35:27.051Z,101427.28
2023-05-12T18:37:54.582Z,101432.81
2023-05-12T18:40:22.108Z,101427.16
2023-05-12T18:42:50.650Z,101441.97
2023-05-12T18:45:19.444Z,101445.00
2023-05-12T18:47:48.508Z,101447.88
2023-05-12T18:50:16.148Z,101451.84
2023-05-12T18:52:43.830Z,101454.66
2023-05-12T18:55:11.325Z,101453.97
2023-05-12T18:57:38.798Z,101465.47
2023-05-12T19:00:07.758Z,101469.88
2023-05-12T19:02:35.530Z,101467.06
2023-05-12T19:05:04.830Z,101471.88
2023-05-12T19:07:32.388Z,101464.22
2023-05-12T19:09:59.797Z,101469.06
2023-05-12T19:12:27.708Z,101473.34
2023-05-12T19:14:55.494Z,101476.28
2023-05-12T19:17:22.939Z,101480.22
2023-05-12T19:19:50.679Z,101487.22
2023-05-12T19:22:19.479Z,101481.78
2023-05-12T19:24:47.368Z,101493.09
2023-05-12T19:27:15.160Z,101491.88
2023-05-12T19:29:42.930Z,101481.56
2023-05-12T19:32:10.895Z,101489.19
2023-05-12T19:34:39.862Z,101491.97
2023-05-12T19:37:07.339Z,101491.91
2023-05-12T19:39:36.038Z,101490.88
2023-05-12T19:42:03.470Z,101496.25
2023-05-12T19:44:30.902Z,101505.53
2023-05-12T19:47:04.264Z,101498.78
2023-05-12T19:49:33.579Z,101494.63
2023-05-12T19:52:01.119Z,101499.50
2023-05-12T19:54:28.677Z,101503.63
2023-05-12T19:56:57.404Z,101511.47
2023-05-12T19:59:26.618Z,101510.72
2023-05-12T20:01:56.488Z,101513.44
2023-05-12T20:04:25.401Z,101508.47
2023-05-12T20:06:54.415Z,101520.50
2023-05-12T20:09:23.243Z,101518.28
2023-05-12T20:11:50.740Z,101511.09
2023-05-12T20:14:19.581Z,101516.06
2023-05-12T20:16:47.192Z,101517.13
2023-05-12T20:19:14.788Z,101515.41
2023-05-12T20:21:42.430Z,101517.69
2023-05-12T20:24:10.095Z,101520.28
2023-05-12T20:26:37.918Z,101521.19
2023-05-12T20:29:05.414Z,101522.69
2023-05-12T20:31:34.435Z,101513.34
2023-05-12T20:34:02.158Z,101516.50
2023-05-12T20:36:29.877Z,101521.66
2023-05-12T20:38:58.209Z,101522.16
2023-05-12T20:41:25.759Z,101523.25
2023-05-12T20:43:53.271Z,101525.59
2023-05-12T20:46:21.009Z,101527.06
2023-05-12T20:48:49.853Z,101533.41
2023-05-12T20:51:17.266Z,101526.13
2023-05-12T20:53:44.971Z,101517.78
2023-05-12T20:56:13.144Z,101533.81
2023-05-12T20:58:40.758Z,101533.78
2023-05-12T21:01:08.369Z,101527.66
2023-05-12T21:03:35.900Z,101534.53
2023-05-12T21:06:06.208Z,101538.25
2023-05-12T21:08:33.638Z,101537.91
2023-05-12T21:11:01.189Z,101538.09
2023-05-12T21:13:28.598Z,101554.25
2023-05-12T21:15:56.402Z,101549.53
2023-05-12T21:18:24.070Z,101542.84
2023-05-12T21:20:51.536Z,101551.03
2023-05-12T21:23:20.237Z,101553.69
2023-05-12T21:25:48.948Z,101555.91
2023-05-12T21:28:16.408Z,101563.78
2023-05-12T21:30:43.841Z,101573.50
2023-05-12T21:33:11.336Z,101563.31
2023-05-12T21:35:38.808Z,101568.47
2023-05-12T21:38:08.556Z,101562.38
2023-05-12T21:40:37.446Z,101563.31
2023-05-12T21:43:05.264Z,101558.97
2023-05-12T21:45:32.868Z,101558.78
2023-05-12T21:48:00.444Z,101558.69
2023-05-12T21:50:27.989Z,101560.59
2023-05-12T21:52:55.425Z,101559.50
2023-05-12T21:55:22.843Z,101562.34
2023-05-12T21:57:51.645Z,101559.84
2023-05-12T22:00:20.033Z,101558.81
2023-05-12T22:02:48.517Z,101559.81
2023-05-12T22:05:16.081Z,101550.09
2023-05-12T22:07:43.940Z,101563.38
2023-05-12T22:10:11.344Z,101560.66
2023-05-12T22:12:38.814Z,101565.94
2023-05-12T22:15:08.856Z,101558.00
2023-05-12T22:17:36.326Z,101559.63
2023-05-12T22:20:04.119Z,101563.31
2023-05-12T22:22:31.540Z,101557.38
2023-05-12T22:24:59.030Z,101558.19
2023-05-12T22:27:26.437Z,101563.56
2023-05-12T22:29:55.035Z,101564.25
2023-05-12T22:32:23.967Z,101570.50
2023-05-12T22:34:53.328Z,101560.09
2023-05-12T22:37:20.916Z,101556.63
2023-05-12T22:39:48.344Z,101553.13
2023-05-12T22:42:15.769Z,101559.16
2023-05-12T22:44:43.251Z,101562.69
2023-05-12T22:47:10.806Z,101563.63
2023-05-12T22:49:39.675Z,101565.31
2023-05-12T22:52:07.497Z,101563.44
2023-05-12T22:54:34.910Z,101566.06
2023-05-12T22:57:02.287Z,101563.38
2023-05-12T22:59:29.703Z,101565.91
2023-05-12T23:01:57.618Z,101568.78
2023-05-12T23:04:25.118Z,101567.59
2023-05-12T23:06:53.881Z,101562.69
2023-05-12T23:09:21.556Z,101561.78
2023-05-12T23:11:48.957Z,101559.97
2023-05-12T23:14:16.360Z,101561.50
2023-05-12T23:16:43.876Z,101561.44
2023-05-12T23:19:11.567Z,101561.63
2023-05-12T23:21:39.004Z,101556.47
2023-05-12T23:24:08.806Z,101551.34
2023-05-12T23:26:36.258Z,101556.34
2023-05-12T23:29:04.068Z,101558.88
2023-05-12T23:31:31.484Z,101559.09
2023-05-12T23:33:58.938Z,101552.22
2023-05-12T23:36:26.368Z,101552.19
2023-05-12T23:38:54.522Z,101551.97
2023-05-12T23:41:23.308Z,101557.09
2023-05-12T23:43:50.727Z,101553.94
2023-05-12T23:46:18.207Z,101547.97
2023-05-12T23:48:45.595Z,101547.84
2023-05-12T23:51:12.995Z,101545.78
2023-05-12T23:53:40.387Z,101551.28
2023-05-12T23:56:08.557Z,101549.56
2023-05-12T23:58:37.267Z,101550.19
